Αγία Πετρούπολη, Ρωσία

02:44 AM MSK on Οκτώβριος 21, 2014 (GMT +0400)
Pulkovo | Change Station
CLOSE
Current Station
Airport
Location: St. Petersburg,
Elevation: 75 ft
Nearby Weather Stations

Elev 75 ft 59.80 °N, 30.27 °E | Updated 14 minutes ago

Overcast
Νεφοσκεπής
36 ° F
Feels Like 28 ° F
N
11
Ανεμος Μεταβλητός Ανεμος from ΒΒΑ

Σήμερα
High -- | Low -- ° F
--% Chance of Precip.
Yesterday
High -- | Low -- ° F
Precip. -- in
8:52 AM 6:33 PM
Μηνίσκος, 9% visible
Ατμοσφαιρική Πίεση 29.47 in
Ορατότητα 6.2 Μίλια
Σύννεφα Νεφελώδης 1000 ft
Νεφοσκεπής 2000 ft
Δείκτης Ψυχρότητας 28 ° F
Σημείο Δρόσου 34 ° F
Υγρασία 93%
Rainfall 0.00 in
Snow Depth Not available.
Υπεριώδης ακτινοβολία (UV) 0 out of 12
Pollen Not available.
Air Quality Not available.
Flu Activity Not available.
METAR ULLI 202230Z 02005MPS 9999 BKN010 OVC020 02/01 Q0998 60290050 10////// NOSIG

More Conditions Fewer Conditions

Ατμοσφαιρική Πίεση 29.47 in
Ορατότητα 6.2 Μίλια
Σύννεφα Νεφελώδης 1000 ft
Νεφοσκεπής 2000 ft
Δείκτης Ψυχρότητας 28 ° F
Σημείο Δρόσου 34 ° F
Υγρασία 93%
Rainfall 0.00 in
Snow Depth Not available.
Υπεριώδης ακτινοβολία (UV) 0 out of 12
Pollen Not available.
Air Quality Not available.
Flu Activity Not available.
METAR ULLI 202230Z 02005MPS 9999 BKN010 OVC020 02/01 Q0998 60290050 10////// NOSIG

More Conditions Fewer Conditions

10-Day Weather Forecast

Almanac

Αστρονομία

Oct. 21, 2014 Rise Set
Actual Time 8:52 AM MSK 6:33 PM MSK
Civil Twilight 8:09 AM MSK 7:16 PM MSK
Nautical Twilight 7:21 AM MSK 8:04 PM MSK
Astronomical Twilight 6:32 AM MSK 8:52 PM MSK
Moon 5:41 AM MSK (10/21) 5:46 PM MSK (10/21)
Length Of Visible Light 11h 06m
Διάρκεια ημέρας
9h 41m
Tomorrow will be 5m 19s shorter.
Μηνίσκος, 9% of the Moon is Illuminated
Oct 20
Μηνίσκος
Oct 23
New
Oct 30
Πρώτο τέταρτο
Nov 6
Πανσέληνος
Nov 14
Τελευταίο τέταρτο

Yesterday's Extremes

Country Highs Country Lows

Community

WunderPhotos

Upload Photos

1,763,541 photos uploaded!

WunderBlogs® & News

By Dr. Jeff Masters
Director of Meteorology, Weather Underground
By Kari Strenfel
Meteorologist, Weather Underground
By Christopher C. Burt
Weather Historian, Weather Underground
October 20, 2014
October 20, 2014
October 20, 2014

Nearby

Snow Depth

Not available.

Earthquake Activity

City Distance Mag. Time & Date
No recent earthquake activity has been reported nearby.
Minimum magnitude displayed is 2.5.

Coastal Water Temperatures

Τοποθεσία Θερμοκρασία
No Stations Reporting

Nearby Weather Stations